Time;durP1;ratioP1;P1;durP2;ratioP2;P2;SDS_P1;SDS_P2;PMS_P1;PMS_P2;Temp;Humidity;BMP_temperature;BMP_pressure;BME280_temperature;BME280_humidity;BME280_pressure;Samples;Min_cycle;Max_cycle;Signal;HPM_P1;HPM_P2
2023/01/29 00:00:30;;;;;;;;;;;2.10;75.50;;;;;;5053234;28;19940;-90
2023/01/29 00:02:56;;;;;;;;;;;2.10;75.50;;;;;;5053261;28;19938;-90
2023/01/29 00:05:21;;;;;;;;;;;2.10;75.40;;;;;;5053151;28;19961;-90
2023/01/29 00:07:47;;;;;;;;;;;2.10;75.40;;;;;;5053420;28;20353;-90
2023/01/29 00:10:13;;;;;;;;;;;2.10;75.40;;;;;;5071871;28;20403;-90
2023/01/29 00:12:38;;;;;;;;;;;2.10;75.30;;;;;;5073121;28;20307;-89
2023/01/29 00:15:04;;;;;;;;;;;2.10;75.40;;;;;;5073388;28;20017;-90
2023/01/29 00:17:30;;;;;;;;;;;2.10;75.20;;;;;;5072994;28;19942;-90
2023/01/29 00:19:55;;;;;;;;;;;2.20;75.00;;;;;;5056583;28;19954;-90
2023/01/29 00:22:21;;;;;;;;;;;2.20;74.80;;;;;;5053024;28;19983;-90
2023/01/29 00:24:47;;;;;;;;;;;2.20;74.90;;;;;;5052964;28;19988;-90
2023/01/29 00:27:12;;;;;;;;;;;2.20;74.60;;;;;;5052941;28;20347;-90
2023/01/29 00:29:38;;;;;;;;;;;2.20;74.30;;;;;;5065944;28;19958;-90
2023/01/29 00:32:03;;;;;;;;;;;2.20;74.10;;;;;;5072969;28;19938;-90
2023/01/29 00:34:29;;;;;;;;;;;2.30;73.90;;;;;;5072936;28;19985;-90
2023/01/29 00:37:03;;;;;;;;;;;2.30;73.80;;;;;;5072915;28;19934;-90
2023/01/29 00:39:37;;;;;;;;;;;2.30;73.70;;;;;;5060715;28;19945;-90
2023/01/29 00:44:56;;;;;;;;;;;2.30;73.70;;;;;;5053052;28;20420;-90
2023/01/29 00:47:32;;;;;;;;;;;2.20;74.10;;;;;;5056826;28;19938;-89
2023/01/29 00:50:01;;;;;;;;;;;2.10;74.30;;;;;;5072017;28;19964;-90
2023/01/29 00:52:26;;;;;;;;;;;1.90;74.60;;;;;;5076680;28;19965;-90
2023/01/29 00:54:53;;;;;;;;;;;1.90;75.20;;;;;;5076658;28;20040;-90
2023/01/29 00:57:19;;;;;;;;;;;1.90;75.60;;;;;;5076558;28;19933;-90
2023/01/29 00:59:44;;;;;;;;;;;1.90;75.90;;;;;;5063101;28;19953;-90
2023/01/29 01:04:54;;;;;;;;;;;1.90;76.30;;;;;;5056571;28;19954;-90
2023/01/29 01:07:20;;;;;;;;;;;1.90;76.30;;;;;;5056494;28;19944;-89
2023/01/29 01:12:30;;;;;;;;;;;1.80;76.60;;;;;;5076380;28;20610;-90
2023/01/29 01:14:56;;;;;;;;;;;1.70;76.60;;;;;;5083540;22;19973;-90
2023/01/29 01:17:21;;;;;;;;;;;1.60;76.60;;;;;;5076248;28;19943;-90
2023/01/29 01:19:47;;;;;;;;;;;1.60;77.30;;;;;;5057634;28;20431;-90
2023/01/29 01:22:13;;;;;;;;;;;1.60;77.20;;;;;;5076047;28;19946;-90
2023/01/29 01:24:38;;;;;;;;;;;1.60;77.40;;;;;;5076171;28;19945;-89
2023/01/29 01:27:06;;;;;;;;;;;1.50;77.80;;;;;;5075618;28;20734;-90
2023/01/29 01:29:31;;;;;;;;;;;1.50;77.80;;;;;;5075800;28;20406;-90
2023/01/29 01:31:57;;;;;;;;;;;1.60;77.60;;;;;;5075975;28;20002;-89
2023/01/29 01:34:23;;;;;;;;;;;1.60;77.50;;;;;;5076036;28;19934;-90
2023/01/29 01:36:48;;;;;;;;;;;1.60;78.10;;;;;;5075890;28;19943;-90
2023/01/29 01:39:14;;;;;;;;;;;1.70;78.00;;;;;;5075717;28;19945;-90
2023/01/29 01:41:39;;;;;;;;;;;1.70;78.20;;;;;;5076094;28;19943;-90
2023/01/29 01:44:05;;;;;;;;;;;1.70;78.20;;;;;;5075796;28;20563;-90
2023/01/29 01:46:34;;;;;;;;;;;1.70;78.90;;;;;;5075720;28;19949;-90
2023/01/29 01:49:14;;;;;;;;;;;1.70;79.10;;;;;;5075427;28;19946;-90
2023/01/29 01:51:41;;;;;;;;;;;1.60;79.30;;;;;;5071515;28;20086;-90
2023/01/29 01:54:10;;;;;;;;;;;1.70;78.90;;;;;;5057524;28;19955;-90
2023/01/29 01:56:39;;;;;;;;;;;1.70;78.70;;;;;;5056936;28;19938;-90
2023/01/29 01:59:16;;;;;;;;;;;1.80;78.10;;;;;;5075269;28;19950;-90
2023/01/29 02:01:43;;;;;;;;;;;1.80;77.80;;;;;;5074719;28;20031;-90
2023/01/29 02:10:20;;;;;;;;;;;1.90;78.80;;;;;;5065097;28;19948;-90
2023/01/29 02:12:46;;;;;;;;;;;1.80;78.50;;;;;;5058031;28;19947;-90
2023/01/29 02:15:11;;;;;;;;;;;1.80;79.20;;;;;;5075104;28;20061;-90
2023/01/29 02:17:37;;;;;;;;;;;1.90;79.40;;;;;;5075187;28;20030;-90
2023/01/29 02:20:32;;;;;;;;;;;2.00;79.40;;;;;;5074846;28;19940;-90
2023/01/29 02:23:09;;;;;;;;;;;2.00;79.60;;;;;;5057691;28;19949;-90
2023/01/29 02:25:35;;;;;;;;;;;2.00;79.30;;;;;;5075069;28;20057;-89
2023/01/29 02:28:03;;;;;;;;;;;2.10;78.30;;;;;;5075017;28;19935;-90
2023/01/29 02:30:41;;;;;;;;;;;2.00;77.30;;;;;;5074401;28;20500;-90
2023/01/29 02:33:25;;;;;;;;;;;2.00;77.30;;;;;;5056904;28;20393;-90
2023/01/29 02:36:06;;;;;;;;;;;1.90;77.90;;;;;;5074291;28;19991;-90
2023/01/29 02:38:58;;;;;;;;;;;1.70;78.60;;;;;;5074738;28;19998;-89
2023/01/29 02:41:39;;;;;;;;;;;1.60;79.10;;;;;;5074651;28;19936;-89
2023/01/29 02:44:23;;;;;;;;;;;1.50;79.30;;;;;;5074682;28;20035;-89
2023/01/29 02:46:54;;;;;;;;;;;1.40;79.80;;;;;;5074277;28;20472;-90
2023/01/29 02:49:30;;;;;;;;;;;1.40;80.40;;;;;;5075097;28;19942;-89
2023/01/29 02:52:06;;;;;;;;;;;1.40;80.70;;;;;;5074299;28;19966;-89
2023/01/29 02:54:31;;;;;;;;;;;1.40;80.80;;;;;;5074409;28;19983;-89
2023/01/29 02:57:04;;;;;;;;;;;1.50;81.00;;;;;;5074025;28;19976;-90
2023/01/29 02:59:52;;;;;;;;;;;1.40;81.00;;;;;;5074243;28;19942;-89
2023/01/29 03:02:20;;;;;;;;;;;1.50;81.20;;;;;;5063161;28;20038;-89
2023/01/29 03:04:49;;;;;;;;;;;1.50;81.00;;;;;;5074499;28;19944;-89
2023/01/29 03:07:40;;;;;;;;;;;1.60;80.90;;;;;;5074167;28;19994;-90
2023/01/29 03:10:05;;;;;;;;;;;1.60;80.70;;;;;;5072770;28;19973;-90
2023/01/29 03:12:35;;;;;;;;;;;1.70;80.30;;;;;;5074053;28;19938;-89
2023/01/29 03:15:13;;;;;;;;;;;1.80;79.80;;;;;;5073830;28;19980;-90
2023/01/29 03:17:51;;;;;;;;;;;1.80;79.90;;;;;;5073584;28;19941;-90
2023/01/29 03:20:18;;;;;;;;;;;1.70;80.70;;;;;;5073916;28;20034;-90
2023/01/29 03:22:47;;;;;;;;;;;1.90;80.90;;;;;;5073924;28;19988;-90
2023/01/29 03:33:34;;;;;;;;;;;2.00;79.00;;;;;;5073968;28;20012;-90
2023/01/29 03:36:04;;;;;;;;;;;2.10;78.50;;;;;;5073125;28;20488;-90
2023/01/29 03:38:30;;;;;;;;;;;2.20;79.50;;;;;;5073537;28;20404;-90
2023/01/29 03:41:15;;;;;;;;;;;2.20;79.60;;;;;;5073768;28;19944;-90
2023/01/29 03:43:50;;;;;;;;;;;2.30;79.30;;;;;;5055568;28;19948;-89
2023/01/29 03:46:23;;;;;;;;;;;2.30;78.60;;;;;;5073062;28;19945;-89
2023/01/29 03:48:58;;;;;;;;;;;2.30;78.20;;;;;;5073412;28;19941;-90
2023/01/29 03:51:33;;;;;;;;;;;2.30;78.20;;;;;;5073346;28;19964;-90
2023/01/29 03:53:58;;;;;;;;;;;2.20;78.20;;;;;;5073247;28;19972;-89
2023/01/29 03:56:38;;;;;;;;;;;2.20;78.60;;;;;;5072921;28;19945;-90
2023/01/29 03:59:03;;;;;;;;;;;2.20;79.30;;;;;;5073525;28;19999;-89
2023/01/29 04:01:46;;;;;;;;;;;2.10;80.10;;;;;;5055292;28;19946;-89
2023/01/29 04:04:19;;;;;;;;;;;2.10;80.60;;;;;;5073257;28;19947;-90
2023/01/29 04:06:46;;;;;;;;;;;2.00;81.20;;;;;;5072965;28;19957;-89
2023/01/29 04:09:14;;;;;;;;;;;2.00;81.40;;;;;;5073185;28;19936;-89
2023/01/29 04:11:43;;;;;;;;;;;2.00;81.20;;;;;;5073133;28;19967;-90
2023/01/29 04:14:09;;;;;;;;;;;2.00;81.00;;;;;;5072943;28;19983;-90
2023/01/29 04:16:39;;;;;;;;;;;2.00;81.00;;;;;;5072669;28;20159;-90
2023/01/29 04:19:05;;;;;;;;;;;2.10;81.20;;;;;;5073018;28;20031;-90
2023/01/29 04:21:31;;;;;;;;;;;2.10;81.10;;;;;;5072978;28;19960;-90
2023/01/29 04:23:57;;;;;;;;;;;2.10;80.90;;;;;;5073043;28;19944;-90
2023/01/29 04:26:39;;;;;;;;;;;2.20;80.60;;;;;;5072775;28;19949;-90
2023/01/29 04:29:29;;;;;;;;;;;2.20;80.60;;;;;;5073007;28;19942;-90
2023/01/29 04:31:59;;;;;;;;;;;2.30;80.70;;;;;;5072895;28;19967;-90
2023/01/29 04:34:35;;;;;;;;;;;2.20;81.10;;;;;;5054993;28;20029;-90
2023/01/29 04:37:08;;;;;;;;;;;2.20;82.00;;;;;;5072668;28;19990;-90
2023/01/29 04:39:42;;;;;;;;;;;2.30;81.90;;;;;;5072904;28;19939;-89
2023/01/29 04:42:17;;;;;;;;;;;2.40;81.80;;;;;;5072888;28;20406;-90
2023/01/29 04:44:53;;;;;;;;;;;2.40;81.40;;;;;;5072797;28;20403;-90
2023/01/29 04:47:23;;;;;;;;;;;2.40;81.10;;;;;;5072617;28;20463;-90
2023/01/29 04:50:01;;;;;;;;;;;2.20;81.20;;;;;;5072700;28;20402;-90
2023/01/29 04:52:47;;;;;;;;;;;2.20;82.00;;;;;;5072721;28;19980;-90
2023/01/29 04:55:16;;;;;;;;;;;2.20;81.90;;;;;;5057452;28;19949;-90
2023/01/29 04:58:00;;;;;;;;;;;2.40;81.50;;;;;;5054655;28;19983;-90
2023/01/29 05:00:27;;;;;;;;;;;2.50;81.40;;;;;;5072719;28;20524;-90
2023/01/29 05:02:53;;;;;;;;;;;2.50;81.50;;;;;;5072314;28;19940;-90
2023/01/29 05:05:19;;;;;;;;;;;2.50;81.50;;;;;;5071965;28;19955;-90
2023/01/29 05:07:46;;;;;;;;;;;2.60;81.40;;;;;;5072649;28;19961;-90
2023/01/29 05:10:12;;;;;;;;;;;2.60;81.10;;;;;;5072754;28;19960;-90
2023/01/29 05:12:39;;;;;;;;;;;2.50;80.30;;;;;;5054582;28;19942;-90
2023/01/29 05:15:08;;;;;;;;;;;2.60;80.40;;;;;;5072160;28;20575;-90
2023/01/29 05:17:33;;;;;;;;;;;2.50;80.50;;;;;;5072807;28;20008;-90
2023/01/29 05:19:59;;;;;;;;;;;2.50;80.60;;;;;;5072530;28;20622;-90
2023/01/29 05:22:25;;;;;;;;;;;2.60;80.40;;;;;;5071941;28;19940;-90
2023/01/29 05:24:50;;;;;;;;;;;2.60;80.30;;;;;;5072476;28;19941;-90
2023/01/29 05:30:02;;;;;;;;;;;2.60;79.30;;;;;;5072609;28;19947;-90
2023/01/29 05:32:27;;;;;;;;;;;2.60;79.60;;;;;;5073448;28;19942;-90
2023/01/29 05:34:53;;;;;;;;;;;2.50;80.20;;;;;;5075967;28;20384;-90
2023/01/29 05:37:18;;;;;;;;;;;2.30;80.70;;;;;;5075915;28;19948;-90
2023/01/29 05:39:44;;;;;;;;;;;2.20;81.10;;;;;;5075857;28;19942;-90
2023/01/29 05:42:09;;;;;;;;;;;2.20;81.30;;;;;;5075602;28;19972;-90
2023/01/29 05:44:35;;;;;;;;;;;2.20;81.50;;;;;;5075796;28;20304;-90
2023/01/29 05:47:01;;;;;;;;;;;2.20;81.50;;;;;;5075749;28;20031;-90
2023/01/29 05:49:27;;;;;;;;;;;2.10;81.40;;;;;;5082752;28;19953;-90
2023/01/29 05:51:52;;;;;;;;;;;2.20;82.10;;;;;;5092937;28;19958;-90
2023/01/29 05:54:18;;;;;;;;;;;2.20;82.00;;;;;;5075655;28;20333;-90
2023/01/29 05:56:43;;;;;;;;;;;2.20;81.70;;;;;;5075353;28;20373;-90
2023/01/29 05:59:09;;;;;;;;;;;2.20;81.70;;;;;;5075751;28;19966;-90
2023/01/29 06:01:34;;;;;;;;;;;2.20;81.70;;;;;;5075514;28;20416;-90
2023/01/29 06:04:00;;;;;;;;;;;2.30;82.10;;;;;;5074764;28;19975;-90
2023/01/29 06:06:26;;;;;;;;;;;2.30;82.30;;;;;;5075481;28;19941;-90
2023/01/29 06:08:51;;;;;;;;;;;2.40;82.10;;;;;;5075320;28;20441;-90
2023/01/29 06:11:17;;;;;;;;;;;2.40;81.60;;;;;;5075258;28;19961;-90
2023/01/29 06:13:43;;;;;;;;;;;2.20;81.00;;;;;;5074954;28;20020;-90
2023/01/29 06:16:09;;;;;;;;;;;2.10;81.60;;;;;;5075233;28;19945;-90
2023/01/29 06:18:35;;;;;;;;;;;2.10;81.50;;;;;;5075112;28;19939;-90
2023/01/29 06:21:01;;;;;;;;;;;2.10;81.50;;;;;;5075148;28;19943;-90
2023/01/29 06:23:27;;;;;;;;;;;2.20;81.50;;;;;;5074359;28;19993;-90
2023/01/29 06:25:53;;;;;;;;;;;2.30;81.30;;;;;;5074996;28;20355;-90
2023/01/29 06:28:18;;;;;;;;;;;2.40;81.10;;;;;;5074988;28;19941;-90
2023/01/29 06:30:43;;;;;;;;;;;2.50;80.50;;;;;;5074916;28;19957;-90
2023/01/29 06:33:09;;;;;;;;;;;2.50;80.30;;;;;;5074480;28;20330;-89
2023/01/29 06:35:34;;;;;;;;;;;2.50;80.70;;;;;;5074642;28;19950;-90
2023/01/29 06:38:00;;;;;;;;;;;2.50;81.00;;;;;;5074778;28;19939;-90
2023/01/29 06:40:25;;;;;;;;;;;2.40;81.30;;;;;;5056892;28;19943;-90
2023/01/29 06:42:51;;;;;;;;;;;2.40;81.80;;;;;;5074244;28;20465;-90
2023/01/29 06:45:16;;;;;;;;;;;2.30;81.70;;;;;;5074628;28;19950;-89
2023/01/29 06:47:42;;;;;;;;;;;2.20;81.60;;;;;;5074586;28;19950;-90
2023/01/29 06:50:08;;;;;;;;;;;2.30;81.40;;;;;;5074497;28;20412;-90
2023/01/29 06:52:33;;;;;;;;;;;2.30;81.10;;;;;;5074052;28;19987;-90
2023/01/29 06:54:59;;;;;;;;;;;2.40;81.30;;;;;;5074396;28;20031;-90
2023/01/29 06:57:27;;;;;;;;;;;2.40;81.00;;;;;;5074272;28;20040;-90
2023/01/29 06:59:53;;;;;;;;;;;2.50;80.80;;;;;;5074312;28;20028;-90
2023/01/29 07:02:18;;;;;;;;;;;2.50;80.50;;;;;;5074021;28;20037;-90
2023/01/29 07:04:44;;;;;;;;;;;2.50;80.80;;;;;;5073881;28;19945;-90
2023/01/29 07:07:12;;;;;;;;;;;2.50;81.10;;;;;;5074226;28;20283;-90
2023/01/29 07:09:39;;;;;;;;;;;2.50;81.10;;;;;;5074104;28;20453;-90
2023/01/29 07:12:04;;;;;;;;;;;2.50;81.60;;;;;;5073708;28;20325;-90
2023/01/29 07:14:30;;;;;;;;;;;2.50;81.50;;;;;;5073841;28;19973;-90
2023/01/29 07:16:55;;;;;;;;;;;2.60;81.20;;;;;;5074017;28;19998;-90
2023/01/29 07:19:22;;;;;;;;;;;2.50;81.00;;;;;;5073922;28;20310;-90
2023/01/29 07:21:48;;;;;;;;;;;2.60;81.00;;;;;;5074184;28;19941;-90
2023/01/29 07:24:15;;;;;;;;;;;2.50;81.30;;;;;;5073566;28;19944;-90
2023/01/29 07:26:40;;;;;;;;;;;2.60;81.20;;;;;;5073786;28;19982;-90
2023/01/29 07:29:06;;;;;;;;;;;2.50;81.00;;;;;;5073801;28;19944;-90
2023/01/29 07:31:31;;;;;;;;;;;2.60;80.90;;;;;;5073404;28;19956;-90
2023/01/29 07:33:57;;;;;;;;;;;2.70;80.40;;;;;;5073118;28;20425;-90
2023/01/29 07:36:23;;;;;;;;;;;2.70;80.30;;;;;;5073437;28;19949;-90
2023/01/29 07:38:49;;;;;;;;;;;2.60;80.40;;;;;;5073858;28;20130;-90
2023/01/29 07:41:15;;;;;;;;;;;2.50;81.10;;;;;;5073302;28;20359;-89
2023/01/29 07:43:40;;;;;;;;;;;2.60;81.30;;;;;;5073522;28;19945;-90
2023/01/29 07:46:06;;;;;;;;;;;2.60;81.50;;;;;;5073536;28;19939;-90
2023/01/29 07:48:31;;;;;;;;;;;2.60;81.30;;;;;;5073520;28;19960;-89
2023/01/29 07:50:57;;;;;;;;;;;2.70;80.70;;;;;;5073097;28;19960;-90
2023/01/29 07:53:23;;;;;;;;;;;2.70;80.30;;;;;;5073259;28;20435;-89
2023/01/29 07:55:49;;;;;;;;;;;2.70;80.30;;;;;;5072682;28;19994;-89
2023/01/29 07:58:14;;;;;;;;;;;2.70;80.50;;;;;;5073399;28;19937;-90
2023/01/29 08:00:40;;;;;;;;;;;2.60;80.70;;;;;;5073098;28;20733;-90
2023/01/29 08:03:06;;;;;;;;;;;2.60;80.80;;;;;;5073273;28;19948;-90
2023/01/29 08:05:32;;;;;;;;;;;2.50;81.10;;;;;;5073235;28;20383;-90
2023/01/29 08:07:58;;;;;;;;;;;2.40;81.60;;;;;;5073245;28;19937;-89
2023/01/29 08:10:23;;;;;;;;;;;2.40;81.90;;;;;;5072892;28;19964;-90
2023/01/29 08:12:53;;;;;;;;;;;2.40;82.40;;;;;;5073080;28;20028;-90
2023/01/29 08:15:19;;;;;;;;;;;2.40;82.90;;;;;;5072974;28;19976;-90
2023/01/29 08:17:44;;;;;;;;;;;2.40;83.00;;;;;;5073388;28;20427;-89
2023/01/29 08:20:10;;;;;;;;;;;2.50;82.80;;;;;;5073108;28;20397;-90
2023/01/29 08:22:35;;;;;;;;;;;2.60;82.30;;;;;;5072842;28;19947;-90
2023/01/29 08:25:01;;;;;;;;;;;2.70;81.80;;;;;;5073031;28;19943;-89
2023/01/29 08:27:26;;;;;;;;;;;2.80;81.50;;;;;;5073029;28;20031;-90
2023/01/29 08:29:52;;;;;;;;;;;2.90;81.40;;;;;;5072915;28;20045;-90
2023/01/29 08:32:17;;;;;;;;;;;3.00;80.70;;;;;;5072563;28;19942;-90
2023/01/29 08:34:43;;;;;;;;;;;3.00;80.20;;;;;;5072936;28;19951;-90
2023/01/29 08:37:08;;;;;;;;;;;3.00;80.10;;;;;;5072994;28;19949;-90
2023/01/29 08:39:34;;;;;;;;;;;3.20;80.10;;;;;;5072718;28;19936;-90
2023/01/29 08:41:59;;;;;;;;;;;3.20;79.90;;;;;;5071606;28;19993;-90
2023/01/29 08:44:25;;;;;;;;;;;3.20;79.80;;;;;;5072894;28;20067;-90
2023/01/29 08:46:50;;;;;;;;;;;3.30;80.00;;;;;;5054889;28;19946;-90
2023/01/29 08:49:16;;;;;;;;;;;3.40;79.90;;;;;;5072862;28;20056;-90
2023/01/29 08:51:42;;;;;;;;;;;3.40;79.60;;;;;;5072437;28;19956;-90
2023/01/29 08:54:07;;;;;;;;;;;3.50;79.40;;;;;;5072711;28;19957;-90
2023/01/29 08:56:33;;;;;;;;;;;3.60;79.20;;;;;;5072646;28;20005;-89
2023/01/29 08:58:58;;;;;;;;;;;3.70;78.50;;;;;;5072996;28;20471;-90
2023/01/29 09:01:24;;;;;;;;;;;3.90;78.60;;;;;;5072369;28;20348;-90
2023/01/29 09:03:51;;;;;;;;;;;4.00;78.40;;;;;;5072495;28;19951;-90
2023/01/29 09:06:16;;;;;;;;;;;4.10;77.70;;;;;;5073588;28;20390;-90
2023/01/29 09:08:42;;;;;;;;;;;4.30;76.60;;;;;;5058558;28;19952;-90
2023/01/29 09:11:08;;;;;;;;;;;4.40;75.60;;;;;;5076049;28;19963;-90
2023/01/29 09:13:33;;;;;;;;;;;4.50;75.00;;;;;;5065536;22;19976;-90
2023/01/29 09:16:00;;;;;;;;;;;4.50;75.10;;;;;;5076344;28;19991;-90
2023/01/29 09:18:25;;;;;;;;;;;4.60;76.10;;;;;;5076271;28;19938;-90
2023/01/29 09:20:52;;;;;;;;;;;4.70;76.20;;;;;;5058251;28;20033;-90
2023/01/29 09:23:17;;;;;;;;;;;4.80;74.50;;;;;;5072138;28;20000;-90
2023/01/29 09:25:43;;;;;;;;;;;4.90;73.50;;;;;;5072827;28;19945;-90
2023/01/29 09:28:08;;;;;;;;;;;5.00;73.40;;;;;;5076146;28;19943;-90
2023/01/29 09:30:36;;;;;;;;;;;5.00;72.60;;;;;;5076044;28;19956;-90
2023/01/29 09:33:02;;;;;;;;;;;5.10;70.90;;;;;;5076063;28;20460;-90
2023/01/29 09:35:28;;;;;;;;;;;5.20;68.90;;;;;;5073789;28;19947;-90
2023/01/29 09:37:53;;;;;;;;;;;5.30;68.80;;;;;;5075916;28;19962;-90
2023/01/29 09:40:22;;;;;;;;;;;5.30;69.00;;;;;;5075922;28;19951;-90
2023/01/29 09:42:52;;;;;;;;;;;5.40;67.40;;;;;;5075927;28;19984;-90
2023/01/29 09:45:25;;;;;;;;;;;5.50;66.80;;;;;;5057609;28;20001;-90
2023/01/29 09:47:51;;;;;;;;;;;5.50;67.20;;;;;;5054480;28;19940;-90
2023/01/29 09:50:22;;;;;;;;;;;5.50;67.80;;;;;;5055716;28;20446;-90
2023/01/29 09:52:53;;;;;;;;;;;5.60;67.60;;;;;;5062442;28;19959;-90
2023/01/29 09:55:21;;;;;;;;;;;5.70;66.90;;;;;;5075625;28;20459;-90
2023/01/29 09:57:48;;;;;;;;;;;5.90;65.70;;;;;;5075508;28;20349;-90
2023/01/29 10:00:19;;;;;;;;;;;6.00;62.80;;;;;;5075522;28;19946;-90
2023/01/29 10:02:51;;;;;;;;;;;6.00;62.00;;;;;;5063733;28;19945;-90
2023/01/29 10:05:26;;;;;;;;;;;6.10;61.70;;;;;;5055477;28;20042;-90
2023/01/29 10:08:03;;;;;;;;;;;6.20;60.70;;;;;;5055371;28;20299;-90
2023/01/29 10:10:29;;;;;;;;;;;6.30;61.90;;;;;;5055277;28;19968;-90
2023/01/29 10:12:57;;;;;;;;;;;6.40;61.10;;;;;;5066576;28;20340;-91
2023/01/29 10:15:41;;;;;;;;;;;6.40;60.50;;;;;;5074472;28;19978;-90
2023/01/29 10:18:27;;;;;;;;;;;6.40;61.40;;;;;;5074559;28;19968;-90
2023/01/29 10:21:10;;;;;;;;;;;6.50;61.00;;;;;;5064263;28;19940;-90
2023/01/29 10:23:37;;;;;;;;;;;6.70;59.30;;;;;;5057809;28;19946;-90
2023/01/29 10:26:03;;;;;;;;;;;6.70;59.20;;;;;;5055026;28;20020;-90
2023/01/29 10:28:28;;;;;;;;;;;6.70;59.60;;;;;;5055035;28;19987;-90
2023/01/29 10:30:56;;;;;;;;;;;6.80;59.30;;;;;;5054898;28;19958;-90
2023/01/29 10:33:41;;;;;;;;;;;6.80;59.50;;;;;;5069617;28;19946;-90
2023/01/29 10:36:11;;;;;;;;;;;6.80;59.40;;;;;;5074892;28;19962;-90
2023/01/29 10:38:47;;;;;;;;;;;6.90;59.60;;;;;;5074878;28;20039;-90
2023/01/29 10:41:18;;;;;;;;;;;6.90;58.50;;;;;;5074833;28;19940;-90
2023/01/29 10:44:01;;;;;;;;;;;6.90;58.20;;;;;;5072715;28;19971;-90
2023/01/29 10:46:30;;;;;;;;;;;7.00;59.70;;;;;;5074723;28;19959;-90
2023/01/29 10:49:27;;;;;;;;;;;7.10;60.00;;;;;;5074655;28;19937;-91
2023/01/29 10:51:53;;;;;;;;;;;7.20;60.30;;;;;;5039298;28;19973;-90
2023/01/29 10:54:41;;;;;;;;;;;7.40;60.10;;;;;;5074017;28;19945;-89
2023/01/29 10:57:16;;;;;;;;;;;7.50;59.10;;;;;;5074377;28;19944;-90
2023/01/29 10:59:41;;;;;;;;;;;7.70;58.20;;;;;;5074400;28;19999;-90
2023/01/29 11:02:11;;;;;;;;;;;7.50;56.10;;;;;;5071496;28;19940;-90
2023/01/29 11:04:38;;;;;;;;;;;7.60;55.60;;;;;;5054275;28;19947;-90
2023/01/29 11:07:03;;;;;;;;;;;7.60;55.20;;;;;;5054268;28;19942;-90
2023/01/29 11:09:34;;;;;;;;;;;7.60;56.20;;;;;;5054244;28;19953;-90
2023/01/29 11:12:01;;;;;;;;;;;7.60;57.60;;;;;;5055241;28;20003;-90
2023/01/29 11:14:30;;;;;;;;;;;7.70;56.20;;;;;;5072272;28;20464;-90
2023/01/29 11:16:55;;;;;;;;;;;7.80;55.70;;;;;;5074085;28;19989;-90
2023/01/29 11:19:38;;;;;;;;;;;7.90;56.90;;;;;;5074056;28;20016;-90
2023/01/29 11:22:03;;;;;;;;;;;7.90;55.00;;;;;;5072056;28;19948;-90
2023/01/29 11:24:29;;;;;;;;;;;8.10;55.10;;;;;;5053980;28;19965;-90
2023/01/29 11:26:56;;;;;;;;;;;8.30;54.70;;;;;;5052645;28;20413;-89
2023/01/29 11:29:43;;;;;;;;;;;8.50;53.80;;;;;;5053368;28;19949;-90
2023/01/29 11:32:28;;;;;;;;;;;8.50;52.80;;;;;;5055937;28;19961;-90
2023/01/29 11:34:57;;;;;;;;;;;8.70;55.80;;;;;;5063866;28;19943;-89
2023/01/29 11:37:22;;;;;;;;;;;8.80;54.00;;;;;;5053676;28;19949;-89
2023/01/29 11:39:49;;;;;;;;;;;8.80;54.90;;;;;;5053702;28;20367;-90
2023/01/29 11:42:18;;;;;;;;;;;8.70;53.60;;;;;;5056522;28;19944;-90
2023/01/29 11:44:44;;;;;;;;;;;8.70;52.60;;;;;;5073820;28;20074;-90
2023/01/29 11:47:39;;;;;;;;;;;8.80;52.40;;;;;;5072259;28;20431;-90
2023/01/29 11:50:04;;;;;;;;;;;8.80;52.70;;;;;;5060330;28;19946;-90
2023/01/29 11:52:34;;;;;;;;;;;8.80;53.10;;;;;;5068376;28;19966;-90
2023/01/29 11:55:20;;;;;;;;;;;8.80;52.40;;;;;;5053438;28;20000;-90
2023/01/29 11:57:49;;;;;;;;;;;9.10;52.60;;;;;;5052871;28;19947;-90
2023/01/29 12:00:20;;;;;;;;;;;9.30;52.30;;;;;;5053341;28;20035;-90
2023/01/29 12:02:47;;;;;;;;;;;9.30;51.10;;;;;;5073301;28;19942;-90
2023/01/29 12:05:15;;;;;;;;;;;9.20;51.30;;;;;;5073349;28;20389;-90
2023/01/29 12:07:41;;;;;;;;;;;9.60;51.10;;;;;;5073268;28;20029;-90
2023/01/29 12:10:27;;;;;;;;;;;10.30;48.40;;;;;;5073198;28;19935;-90
2023/01/29 12:13:02;;;;;;;;;;;11.00;49.20;;;;;;5053027;28;19948;-90
2023/01/29 12:15:28;;;;;;;;;;;11.40;46.30;;;;;;5052985;28;20312;-90
2023/01/29 12:18:00;;;;;;;;;;;11.90;46.10;;;;;;5053369;28;19948;-90
2023/01/29 12:20:48;;;;;;;;;;;12.20;44.00;;;;;;5053014;28;19957;-90
2023/01/29 12:23:37;;;;;;;;;;;12.30;42.70;;;;;;5067291;28;19945;-90
2023/01/29 12:26:12;;;;;;;;;;;12.30;44.60;;;;;;5072891;28;19940;-90
2023/01/29 12:28:53;;;;;;;;;;;12.40;44.20;;;;;;5073046;28;19939;-90
2023/01/29 12:31:21;;;;;;;;;;;13.00;42.50;;;;;;5065519;28;20419;-90
2023/01/29 12:33:47;;;;;;;;;;;13.30;41.10;;;;;;5052960;28;20005;-90
2023/01/29 12:36:21;;;;;;;;;;;13.30;42.00;;;;;;5052933;28;19984;-91
2023/01/29 12:38:47;;;;;;;;;;;13.30;41.00;;;;;;5052891;28;19944;-90
2023/01/29 12:41:21;;;;;;;;;;;13.40;41.40;;;;;;5059182;28;19946;-90
2023/01/29 12:43:50;;;;;;;;;;;13.80;40.70;;;;;;5065671;28;19947;-91
2023/01/29 12:46:30;;;;;;;;;;;13.90;41.00;;;;;;5056986;28;20396;-90
2023/01/29 12:48:58;;;;;;;;;;;14.10;40.90;;;;;;5056888;28;20042;-90
2023/01/29 12:51:39;;;;;;;;;;;14.00;40.00;;;;;;5072086;28;20021;-90
2023/01/29 12:54:07;;;;;;;;;;;14.20;40.00;;;;;;5076797;28;20426;-90
2023/01/29 12:56:41;;;;;;;;;;;14.10;40.40;;;;;;5076684;28;19945;-90
2023/01/29 12:59:15;;;;;;;;;;;14.10;41.30;;;;;;5076747;28;19991;-90
2023/01/29 13:02:03;;;;;;;;;;;13.90;39.90;;;;;;5073651;28;20291;-90
2023/01/29 13:04:28;;;;;;;;;;;14.00;40.60;;;;;;5076652;28;20001;-90
2023/01/29 13:06:55;;;;;;;;;;;13.60;41.60;;;;;;5076514;28;20399;-90
2023/01/29 13:09:29;;;;;;;;;;;13.20;42.20;;;;;;5076779;28;19941;-90
2023/01/29 13:11:58;;;;;;;;;;;12.90;44.20;;;;;;5075037;28;19971;-90
2023/01/29 13:14:30;;;;;;;;;;;12.90;43.40;;;;;;5076276;28;19980;-90
2023/01/29 13:17:05;;;;;;;;;;;13.00;43.30;;;;;;5076359;28;19941;-90
2023/01/29 13:19:37;;;;;;;;;;;13.10;42.90;;;;;;5075084;28;19945;-89
2023/01/29 13:22:04;;;;;;;;;;;12.50;43.90;;;;;;5074333;28;19944;-90
2023/01/29 13:24:34;;;;;;;;;;;12.90;43.30;;;;;;5076275;28;19997;-90
2023/01/29 13:26:59;;;;;;;;;;;12.90;42.80;;;;;;5076213;28;19945;-90
2023/01/29 13:29:29;;;;;;;;;;;13.10;44.90;;;;;;5076174;28;19946;-90
2023/01/29 13:31:58;;;;;;;;;;;13.30;42.70;;;;;;5074048;28;19956;-89
2023/01/29 13:34:30;;;;;;;;;;;12.60;43.80;;;;;;5056073;28;19942;-90
2023/01/29 13:37:16;;;;;;;;;;;12.30;44.60;;;;;;5056069;28;20184;-89
2023/01/29 13:39:46;;;;;;;;;;;12.50;46.70;;;;;;5055485;28;19995;-90
2023/01/29 13:42:14;;;;;;;;;;;13.10;44.10;;;;;;5074345;28;19997;-90
2023/01/29 13:44:40;;;;;;;;;;;13.20;43.50;;;;;;5075844;28;20003;-90
2023/01/29 13:47:10;;;;;;;;;;;12.90;44.20;;;;;;5075127;28;19941;-90
2023/01/29 13:49:38;;;;;;;;;;;13.40;43.90;;;;;;5074350;28;19949;-90
2023/01/29 13:52:15;;;;;;;;;;;13.80;42.70;;;;;;5075841;28;19963;-90
2023/01/29 13:54:48;;;;;;;;;;;13.80;42.50;;;;;;5074995;28;19956;-90
2023/01/29 13:57:32;;;;;;;;;;;13.00;44.40;;;;;;5074201;28;19940;-90
2023/01/29 13:59:57;;;;;;;;;;;12.50;45.40;;;;;;5055606;28;20298;-90
2023/01/29 14:02:27;;;;;;;;;;;12.70;46.50;;;;;;5055845;28;19952;-90
2023/01/29 14:05:12;;;;;;;;;;;12.80;46.10;;;;;;5055489;28;19942;-90
2023/01/29 14:07:38;;;;;;;;;;;12.80;46.40;;;;;;5035237;28;19939;-90
2023/01/29 14:10:18;;;;;;;;;;;12.40;47.90;;;;;;5055330;28;20338;-89
2023/01/29 14:12:44;;;;;;;;;;;12.00;48.60;;;;;;5055566;28;20010;-90
2023/01/29 14:15:17;;;;;;;;;;;12.40;48.80;;;;;;5055166;28;20083;-90
2023/01/29 14:18:01;;;;;;;;;;;12.90;47.80;;;;;;5059907;28;19947;-90
2023/01/29 14:20:32;;;;;;;;;;;12.60;48.70;;;;;;5075224;28;20414;-89
2023/01/29 14:22:59;;;;;;;;;;;12.30;49.30;;;;;;5075436;28;20009;-89
2023/01/29 14:25:32;;;;;;;;;;;12.30;49.70;;;;;;5075140;28;19935;-90
2023/01/29 14:27:59;;;;;;;;;;;12.10;49.60;;;;;;5068929;28;19946;-89
2023/01/29 14:30:25;;;;;;;;;;;12.30;50.30;;;;;;5054943;28;19967;-90
2023/01/29 14:32:51;;;;;;;;;;;12.40;49.20;;;;;;5054951;28;20439;-90
2023/01/29 14:35:21;;;;;;;;;;;12.60;48.50;;;;;;5054958;28;20024;-89
2023/01/29 14:37:48;;;;;;;;;;;12.60;49.40;;;;;;5059085;28;19951;-89
2023/01/29 14:40:19;;;;;;;;;;;12.50;49.80;;;;;;5074827;28;20021;-89
2023/01/29 14:43:04;;;;;;;;;;;12.00;50.10;;;;;;5074716;28;19989;-90
2023/01/29 14:45:37;;;;;;;;;;;11.70;51.60;;;;;;5074722;28;20032;-90
2023/01/29 14:48:05;;;;;;;;;;;11.60;51.80;;;;;;5068025;28;19995;-90
2023/01/29 14:50:31;;;;;;;;;;;11.70;50.90;;;;;;5062368;28;19969;-90
2023/01/29 14:53:15;;;;;;;;;;;11.60;50.90;;;;;;5073239;28;19959;-90
2023/01/29 14:55:53;;;;;;;;;;;11.50;51.30;;;;;;5074437;28;20001;-90
2023/01/29 14:58:22;;;;;;;;;;;11.40;51.50;;;;;;5073732;28;19947;-90
2023/01/29 15:00:50;;;;;;;;;;;11.30;52.20;;;;;;5073033;28;19948;-90
2023/01/29 15:03:21;;;;;;;;;;;11.20;52.80;;;;;;5074406;28;19940;-90
2023/01/29 15:05:48;;;;;;;;;;;11.20;53.20;;;;;;5074214;28;19947;-90
2023/01/29 15:08:28;;;;;;;;;;;11.20;53.50;;;;;;5068892;28;19945;-90